createdAt,value
2022-08-22T00:02:28.700Z,17.30
2022-08-22T00:02:53.052Z,23.00
2022-08-22T00:02:53.142Z,22.00
2022-08-22T00:05:04.251Z,17.20
2022-08-22T00:07:44.829Z,17.20
2022-08-22T00:10:25.242Z,17.20
2022-08-22T00:13:05.364Z,17.00
2022-08-22T00:15:43.148Z,16.80
2022-08-22T00:18:17.341Z,17.00
2022-08-22T00:20:51.921Z,16.80
2022-08-22T00:23:26.017Z,16.80
2022-08-22T00:25:59.854Z,16.70
2022-08-22T00:28:34.875Z,16.90
2022-08-22T00:31:12.084Z,16.90
2022-08-22T00:33:46.098Z,16.80
2022-08-22T00:36:22.564Z,16.80
2022-08-22T00:38:59.896Z,16.70
2022-08-22T00:41:41.870Z,16.80
2022-08-22T00:44:43.034Z,16.60
2022-08-22T00:47:26.483Z,16.50
2022-08-22T00:50:07.791Z,16.60
2022-08-22T00:53:01.325Z,16.50
2022-08-22T00:55:50.812Z,16.50
2022-08-22T00:58:44.679Z,16.40
2022-08-22T01:01:16.279Z,16.10
2022-08-22T01:04:20.583Z,16.20
2022-08-22T01:07:00.620Z,16.20
2022-08-22T01:09:41.233Z,16.20
2022-08-22T01:12:25.733Z,16.10
2022-08-22T01:14:59.022Z,16.10
2022-08-22T01:18:06.312Z,16.10
2022-08-22T01:21:30.448Z,16.00
2022-08-22T01:24:37.227Z,15.90
2022-08-22T01:27:38.048Z,15.90
2022-08-22T01:30:16.402Z,15.70
2022-08-22T01:33:15.789Z,15.70
2022-08-22T01:36:08.777Z,15.70
2022-08-22T01:38:57.465Z,15.60
2022-08-22T01:41:44.234Z,15.70
2022-08-22T01:44:29.129Z,15.50
2022-08-22T01:47:03.402Z,15.60
2022-08-22T01:49:38.510Z,15.50
2022-08-22T01:52:12.144Z,15.40
2022-08-22T01:54:49.949Z,15.60
2022-08-22T01:57:19.213Z,15.70
2022-08-22T01:59:49.975Z,15.60
2022-08-22T02:02:48.986Z,15.50
2022-08-22T02:05:26.383Z,15.50
2022-08-22T02:08:02.142Z,15.40
2022-08-22T02:10:48.355Z,15.50
2022-08-22T02:13:28.473Z,15.50
2022-08-22T02:16:07.537Z,15.50
2022-08-22T02:18:49.863Z,15.40
2022-08-22T02:21:23.355Z,15.40
2022-08-22T02:24:00.962Z,15.30
2022-08-22T02:26:42.527Z,16.20
2022-08-22T02:29:16.560Z,15.50
2022-08-22T02:31:49.923Z,15.40
2022-08-22T02:34:34.116Z,15.40
2022-08-22T02:37:09.420Z,15.30
2022-08-22T02:39:48.476Z,15.10
2022-08-22T02:42:25.245Z,15.10
2022-08-22T02:45:06.750Z,15.10
2022-08-22T02:47:40.982Z,14.80
2022-08-22T02:50:18.470Z,14.80
2022-08-22T02:53:06.438Z,14.90
2022-08-22T02:55:47.443Z,14.90
2022-08-22T02:58:38.283Z,14.90
2022-08-22T03:01:25.705Z,14.70
2022-08-22T03:04:22.209Z,14.70
2022-08-22T03:07:06.669Z,14.70
2022-08-22T03:09:39.926Z,14.90
2022-08-22T03:12:19.379Z,14.70
2022-08-22T03:14:58.501Z,14.80
2022-08-22T03:17:32.293Z,14.80
2022-08-22T03:20:06.854Z,14.80
2022-08-22T03:22:43.551Z,14.90
2022-08-22T03:25:22.839Z,14.60
2022-08-22T03:27:56.089Z,14.40
2022-08-22T03:30:31.896Z,14.40
2022-08-22T03:33:15.812Z,14.50
2022-08-22T03:36:05.334Z,14.30
2022-08-22T03:38:48.646Z,14.40
2022-08-22T03:41:40.111Z,14.20
2022-08-22T03:44:32.241Z,14.20
2022-08-22T03:47:17.940Z,14.30
2022-08-22T03:50:16.315Z,14.30
2022-08-22T03:53:15.323Z,14.40
2022-08-22T03:56:30.855Z,14.40
2022-08-22T03:59:50.489Z,14.30
2022-08-22T04:02:43.424Z,14.30
2022-08-22T04:05:36.738Z,14.40
2022-08-22T04:08:34.039Z,14.40
2022-08-22T04:11:31.382Z,14.40
2022-08-22T04:14:24.903Z,14.30
2022-08-22T04:17:11.846Z,14.20
2022-08-22T04:20:16.885Z,14.10
2022-08-22T04:23:02.125Z,14.00
2022-08-22T04:25:38.175Z,14.00
2022-08-22T04:28:12.567Z,14.20
2022-08-22T04:30:47.271Z,14.10
2022-08-22T04:33:27.877Z,14.00
2022-08-22T04:36:04.231Z,14.10
2022-08-22T04:38:37.420Z,14.00
2022-08-22T04:41:11.961Z,14.00
2022-08-22T04:43:47.020Z,14.10
2022-08-22T04:46:20.833Z,14.30
2022-08-22T04:48:55.606Z,14.20
2022-08-22T04:51:33.075Z,14.20
2022-08-22T04:54:18.673Z,14.10
2022-08-22T04:56:58.702Z,14.10
2022-08-22T04:59:26.707Z,14.10
2022-08-22T05:01:58.284Z,14.10
2022-08-22T05:04:29.729Z,14.10
2022-08-22T05:07:02.243Z,14.20
2022-08-22T05:09:32.281Z,14.20
2022-08-22T05:12:05.761Z,14.20
2022-08-22T05:14:39.772Z,14.30
2022-08-22T05:17:10.037Z,14.40
2022-08-22T05:19:43.303Z,14.40
2022-08-22T05:22:16.468Z,14.40
2022-08-22T05:24:48.770Z,14.20
2022-08-22T05:27:22.024Z,14.30
2022-08-22T05:29:52.080Z,14.50
2022-08-22T05:32:26.838Z,14.50
2022-08-22T05:35:02.320Z,14.60
2022-08-22T05:37:39.082Z,14.60
2022-08-22T05:40:09.524Z,14.70
2022-08-22T05:42:38.750Z,14.80
2022-08-22T05:45:12.201Z,14.80
2022-08-22T05:47:43.127Z,14.70
2022-08-22T05:50:16.190Z,14.60
2022-08-22T05:52:59.062Z,14.80
2022-08-22T05:55:33.549Z,14.90
2022-08-22T05:58:25.426Z,15.10
2022-08-22T06:00:58.643Z,15.10
2022-08-22T06:03:31.227Z,15.10
2022-08-22T06:06:04.247Z,15.20
2022-08-22T06:08:38.987Z,15.30
2022-08-22T06:11:14.348Z,15.40
2022-08-22T06:13:52.534Z,15.50
2022-08-22T06:16:27.113Z,15.60
2022-08-22T06:18:57.248Z,15.70
2022-08-22T06:21:38.539Z,15.80
2022-08-22T06:24:11.132Z,15.80
2022-08-22T06:26:48.245Z,15.90
2022-08-22T06:29:23.835Z,16.10
2022-08-22T06:31:51.983Z,16.20
2022-08-22T06:34:26.070Z,16.20
2022-08-22T06:36:56.416Z,16.30
2022-08-22T06:39:29.457Z,16.40
2022-08-22T06:42:02.830Z,16.50
2022-08-22T06:44:35.385Z,16.60
2022-08-22T06:47:07.175Z,16.80
2022-08-22T06:49:39.576Z,16.90
2022-08-22T06:52:10.262Z,17.00
2022-08-22T06:54:44.022Z,17.00
2022-08-22T06:57:26.867Z,17.10
2022-08-22T06:59:58.072Z,17.30
2022-08-22T07:02:31.565Z,17.50
2022-08-22T07:05:02.668Z,17.60
2022-08-22T07:07:30.503Z,17.70
2022-08-22T07:09:58.443Z,17.80
2022-08-22T07:12:31.585Z,17.90
2022-08-22T07:15:10.116Z,18.00
2022-08-22T07:17:47.504Z,18.20
2022-08-22T07:20:23.959Z,18.30
2022-08-22T07:22:54.467Z,18.50
2022-08-22T07:25:24.418Z,18.60
2022-08-22T07:28:07.293Z,18.80
2022-08-22T07:30:48.552Z,19.00
2022-08-22T07:33:31.125Z,19.10
2022-08-22T07:36:00.855Z,19.30
2022-08-22T07:38:42.534Z,19.40
2022-08-22T07:41:16.612Z,19.60
2022-08-22T07:43:47.799Z,19.80
2022-08-22T07:46:27.964Z,20.10
2022-08-22T07:49:09.090Z,20.10
2022-08-22T07:51:47.957Z,20.10
2022-08-22T07:54:22.148Z,20.10
2022-08-22T07:56:59.849Z,20.30
2022-08-22T07:59:29.484Z,20.40
2022-08-22T08:02:02.088Z,20.60
2022-08-22T08:04:33.457Z,20.70
2022-08-22T08:07:06.118Z,21.00
2022-08-22T08:09:40.367Z,21.10
2022-08-22T08:12:11.228Z,21.30
2022-08-22T08:14:41.957Z,21.40
2022-08-22T08:17:19.457Z,21.40
2022-08-22T08:19:48.342Z,21.50
2022-08-22T08:22:21.294Z,21.60
2022-08-22T08:24:52.180Z,21.80
2022-08-22T08:27:40.885Z,22.20
2022-08-22T08:30:16.667Z,22.10
2022-08-22T08:32:54.054Z,22.20
2022-08-22T08:35:42.243Z,22.30
2022-08-22T08:38:21.323Z,22.30
2022-08-22T08:41:19.726Z,22.50
2022-08-22T08:44:00.851Z,22.90
2022-08-22T08:46:55.615Z,22.80
2022-08-22T08:49:45.646Z,22.80
2022-08-22T08:52:48.210Z,23.00
2022-08-22T08:55:30.676Z,23.10
2022-08-22T08:58:20.317Z,23.30
2022-08-22T09:00:57.119Z,23.40
2022-08-22T09:03:51.281Z,23.70
2022-08-22T09:06:42.355Z,23.90
2022-08-22T09:09:29.633Z,24.10
2022-08-22T09:12:17.851Z,24.20
2022-08-22T09:15:12.011Z,24.50
2022-08-22T09:18:13.379Z,25.10
2022-08-22T09:21:08.885Z,25.00
2022-08-22T09:24:14.533Z,25.00
2022-08-22T09:26:50.963Z,25.50
2022-08-22T09:29:55.178Z,25.50
2022-08-22T09:32:44.459Z,25.50
2022-08-22T09:35:22.536Z,25.50
2022-08-22T09:38:09.512Z,25.70
2022-08-22T09:40:45.872Z,25.70
2022-08-22T09:43:21.215Z,25.90
2022-08-22T09:45:58.447Z,26.00
2022-08-22T09:48:40.030Z,26.10
2022-08-22T09:51:32.246Z,26.40
2022-08-22T09:54:16.087Z,26.30
2022-08-22T09:57:02.107Z,26.40
2022-08-22T09:59:52.534Z,26.50
2022-08-22T10:02:34.831Z,26.50
2022-08-22T10:05:13.034Z,26.60
2022-08-22T10:08:32.061Z,27.10
2022-08-22T10:11:18.889Z,27.30
2022-08-22T10:13:57.562Z,27.20
2022-08-22T10:17:09.080Z,27.50
2022-08-22T10:19:41.443Z,27.60
2022-08-22T10:22:20.186Z,27.70
2022-08-22T10:24:58.638Z,27.70
2022-08-22T10:27:43.416Z,27.70
2022-08-22T10:30:17.848Z,27.90
2022-08-22T10:32:53.489Z,28.10
2022-08-22T10:35:28.052Z,28.00
2022-08-22T10:38:07.418Z,28.10
2022-08-22T10:40:43.981Z,28.00
2022-08-22T10:43:22.011Z,28.10
2022-08-22T10:46:04.093Z,28.30
2022-08-22T10:48:49.577Z,28.30
2022-08-22T10:51:29.831Z,28.50
2022-08-22T10:54:06.840Z,28.70
2022-08-22T10:56:41.357Z,28.60
2022-08-22T10:59:30.100Z,28.70
2022-08-22T11:02:11.202Z,28.70
2022-08-22T11:05:01.021Z,28.40
2022-08-22T11:07:48.536Z,28.50
2022-08-22T11:10:25.387Z,28.60
2022-08-22T11:13:06.623Z,29.00
2022-08-22T11:16:00.436Z,28.90
2022-08-22T11:19:02.869Z,29.20
2022-08-22T11:22:01.006Z,29.20
2022-08-22T11:25:11.307Z,29.30
2022-08-22T11:27:47.540Z,29.40
2022-08-22T11:30:19.190Z,29.30
2022-08-22T11:33:06.261Z,29.30
2022-08-22T11:35:43.945Z,29.30
2022-08-22T11:38:26.942Z,29.10
2022-08-22T11:41:06.480Z,29.40
2022-08-22T11:43:52.487Z,29.30
2022-08-22T11:46:29.831Z,29.30
2022-08-22T11:49:13.381Z,29.60
2022-08-22T11:51:57.744Z,29.80
2022-08-22T11:54:56.839Z,29.80
2022-08-22T11:57:32.773Z,29.70
2022-08-22T12:00:20.748Z,29.90
2022-08-22T12:03:12.906Z,30.00
2022-08-22T12:05:47.675Z,30.10
2022-08-22T12:08:27.085Z,30.10
2022-08-22T12:11:00.875Z,30.00
2022-08-22T12:13:41.293Z,29.90
2022-08-22T12:16:15.348Z,30.10
2022-08-22T12:18:59.831Z,30.00
2022-08-22T12:22:05.974Z,30.00
2022-08-22T12:24:47.539Z,29.70
2022-08-22T12:27:33.601Z,30.00
2022-08-22T12:30:13.951Z,30.20
2022-08-22T12:33:14.841Z,30.10
2022-08-22T12:36:01.682Z,30.10
2022-08-22T12:38:51.331Z,30.30
2022-08-22T12:41:40.473Z,30.50
2022-08-22T12:44:30.928Z,30.40
2022-08-22T12:47:12.337Z,30.60
2022-08-22T12:49:58.158Z,30.50
2022-08-22T12:52:47.048Z,30.70
2022-08-22T12:55:35.942Z,30.80
2022-08-22T12:58:14.575Z,30.80
2022-08-22T13:00:49.053Z,30.90
2022-08-22T13:03:25.285Z,31.00
2022-08-22T13:05:59.803Z,30.90
2022-08-22T13:08:32.457Z,31.00
2022-08-22T13:11:03.693Z,31.00
2022-08-22T13:13:41.128Z,31.00
2022-08-22T13:16:12.536Z,31.00
2022-08-22T13:18:44.720Z,31.20
2022-08-22T13:21:17.336Z,31.30
2022-08-22T13:23:53.317Z,31.30
2022-08-22T13:26:34.384Z,31.20
2022-08-22T13:29:25.284Z,31.10
2022-08-22T13:32:00.234Z,31.10
2022-08-22T13:34:39.789Z,30.90
2022-08-22T13:37:12.412Z,30.60
2022-08-22T13:39:45.020Z,30.70
2022-08-22T13:42:30.122Z,30.70
2022-08-22T13:45:02.461Z,30.70
2022-08-22T13:47:35.786Z,30.70
2022-08-22T13:50:12.697Z,30.90
2022-08-22T13:52:52.207Z,30.90
2022-08-22T13:55:29.486Z,31.00
2022-08-22T13:58:02.250Z,31.00
2022-08-22T14:01:18.556Z,31.10
2022-08-22T14:03:52.928Z,31.00
2022-08-22T14:06:37.717Z,31.20
2022-08-22T14:09:17.351Z,31.20
2022-08-22T14:12:13.634Z,31.20
2022-08-22T14:14:42.893Z,31.20
2022-08-22T14:17:18.113Z,31.30
2022-08-22T14:19:59.498Z,31.00
2022-08-22T14:22:34.758Z,31.00
2022-08-22T14:25:07.704Z,30.90
2022-08-22T14:27:41.256Z,30.80
2022-08-22T14:30:16.400Z,30.70
2022-08-22T14:32:49.354Z,30.70
2022-08-22T14:35:35.204Z,30.50
2022-08-22T14:38:27.294Z,30.50
2022-08-22T14:41:05.172Z,30.60
2022-08-22T14:43:50.457Z,30.60
2022-08-22T14:46:26.696Z,30.50
2022-08-22T14:49:16.221Z,30.40
2022-08-22T14:51:51.178Z,30.40
2022-08-22T14:54:21.942Z,30.30
2022-08-22T14:56:52.342Z,30.50
2022-08-22T14:59:39.818Z,30.50
2022-08-22T15:02:11.261Z,30.70
2022-08-22T15:04:40.360Z,30.50
2022-08-22T15:07:13.545Z,30.40
2022-08-22T15:09:44.164Z,30.30
2022-08-22T15:12:24.573Z,30.10
2022-08-22T15:14:54.453Z,30.20
2022-08-22T15:17:43.996Z,30.10
2022-08-22T15:20:27.908Z,29.90
2022-08-22T15:23:01.251Z,29.80
2022-08-22T15:25:32.398Z,29.70
2022-08-22T15:28:06.689Z,29.70
2022-08-22T15:30:45.168Z,29.80
2022-08-22T15:33:19.083Z,29.90
2022-08-22T15:35:48.916Z,29.90
2022-08-22T15:38:32.603Z,29.90
2022-08-22T15:41:41.881Z,30.00
2022-08-22T15:44:15.113Z,30.00
2022-08-22T15:47:03.938Z,29.90
2022-08-22T15:49:36.445Z,29.80
2022-08-22T15:52:22.977Z,29.80
2022-08-22T15:55:21.930Z,29.90
2022-08-22T15:58:02.562Z,29.80
2022-08-22T16:00:34.460Z,29.80
2022-08-22T16:03:04.001Z,29.70
2022-08-22T16:05:43.707Z,29.60
2022-08-22T16:08:14.797Z,29.60
2022-08-22T16:10:48.632Z,29.60
2022-08-22T16:13:38.110Z,29.50
2022-08-22T16:16:13.517Z,29.40
2022-08-22T16:19:17.265Z,30.30
2022-08-22T16:22:21.413Z,29.20
2022-08-22T16:25:10.401Z,28.90
2022-08-22T16:27:53.661Z,29.00
2022-08-22T16:30:34.578Z,29.00
2022-08-22T16:33:03.081Z,28.90
2022-08-22T16:36:16.811Z,28.90
2022-08-22T16:38:47.633Z,28.90
2022-08-22T16:41:35.724Z,28.80
2022-08-22T16:44:39.580Z,28.60
2022-08-22T16:47:11.976Z,28.70
2022-08-22T16:49:55.485Z,28.70
2022-08-22T16:52:53.122Z,28.70
2022-08-22T16:55:59.939Z,28.80
2022-08-22T16:58:57.841Z,28.70
2022-08-22T17:01:46.725Z,28.60
2022-08-22T17:04:24.247Z,28.60
2022-08-22T17:07:09.298Z,28.60
2022-08-22T17:10:19.533Z,28.50
2022-08-22T17:13:03.939Z,28.50
2022-08-22T17:15:36.497Z,28.50
2022-08-22T17:18:23.352Z,28.40
2022-08-22T17:21:06.153Z,28.30
2022-08-22T17:23:47.276Z,28.20
2022-08-22T17:26:28.717Z,28.20
2022-08-22T17:29:08.977Z,28.10
2022-08-22T17:31:46.369Z,28.20
2022-08-22T17:34:33.897Z,28.20
2022-08-22T17:37:12.127Z,28.20
2022-08-22T17:40:11.008Z,28.00
2022-08-22T17:42:49.255Z,28.00
2022-08-22T17:45:27.515Z,27.90
2022-08-22T17:48:06.801Z,27.80
2022-08-22T17:50:43.432Z,27.80
2022-08-22T17:53:16.759Z,27.70
2022-08-22T17:55:59.001Z,27.70
2022-08-22T17:58:40.894Z,27.60
2022-08-22T18:01:15.880Z,27.50
2022-08-22T18:03:50.984Z,27.40
2022-08-22T18:06:23.773Z,27.40
2022-08-22T18:11:51.090Z,27.30
2022-08-22T18:14:29.716Z,27.20
2022-08-22T18:17:00.946Z,27.10
2022-08-22T18:19:42.168Z,27.10
2022-08-22T18:22:23.004Z,26.80
2022-08-22T18:24:55.264Z,26.70
2022-08-22T18:27:30.009Z,26.80
2022-08-22T18:30:09.159Z,26.80
2022-08-22T18:32:43.178Z,26.70
2022-08-22T18:35:20.852Z,26.60
2022-08-22T18:37:58.634Z,26.50
2022-08-22T18:40:33.386Z,26.30
2022-08-22T18:43:13.959Z,26.30
2022-08-22T18:46:29.808Z,26.20
2022-08-22T18:49:15.158Z,26.00
2022-08-22T18:51:44.031Z,25.90
2022-08-22T18:54:36.502Z,25.80
2022-08-22T18:57:24.538Z,25.60
2022-08-22T19:00:05.516Z,25.60
2022-08-22T19:03:09.997Z,25.60
2022-08-22T19:05:59.040Z,25.50
2022-08-22T19:08:51.600Z,25.40
2022-08-22T19:11:37.337Z,25.50
2022-08-22T19:14:27.458Z,25.20
2022-08-22T19:17:16.245Z,25.20
2022-08-22T19:20:13.829Z,25.20
2022-08-22T19:22:42.366Z,25.10
2022-08-22T19:25:21.610Z,24.80
2022-08-22T19:28:25.154Z,24.80
2022-08-22T19:31:16.588Z,24.80
2022-08-22T19:33:49.505Z,24.70
2022-08-22T19:36:31.802Z,24.70
2022-08-22T19:39:04.573Z,24.40
2022-08-22T19:41:58.606Z,24.40
2022-08-22T19:44:39.814Z,24.50
2022-08-22T19:47:24.074Z,24.40
2022-08-22T19:50:05.749Z,24.30
2022-08-22T19:52:47.845Z,24.20
2022-08-22T19:55:26.046Z,24.30
2022-08-22T19:58:00.165Z,24.20
2022-08-22T20:00:47.543Z,24.10
2022-08-22T20:03:27.310Z,24.00
2022-08-22T20:06:05.327Z,23.90
2022-08-22T20:08:57.603Z,23.90
2022-08-22T20:11:42.384Z,23.90
2022-08-22T20:14:29.899Z,23.80
2022-08-22T20:17:06.433Z,23.80
2022-08-22T20:19:41.591Z,23.70
2022-08-22T20:22:15.912Z,23.70
2022-08-22T20:24:49.091Z,23.70
2022-08-22T20:27:22.027Z,23.60
2022-08-22T20:29:54.916Z,23.60
2022-08-22T20:32:25.926Z,23.50
2022-08-22T20:34:58.634Z,23.50
2022-08-22T20:37:56.250Z,23.50
2022-08-22T20:40:56.648Z,23.50
2022-08-22T20:43:34.543Z,23.40
2022-08-22T20:46:15.923Z,23.30
2022-08-22T20:48:46.342Z,23.30
2022-08-22T20:51:17.354Z,23.30
2022-08-22T20:53:51.977Z,23.20
2022-08-22T20:56:33.128Z,23.20
2022-08-22T20:59:01.598Z,23.10
2022-08-22T21:01:30.217Z,23.10
2022-08-22T21:03:58.218Z,23.10
2022-08-22T21:06:32.156Z,22.90
2022-08-22T21:09:32.338Z,22.90
2022-08-22T21:12:01.502Z,22.90
2022-08-22T21:14:35.753Z,22.80
2022-08-22T21:17:20.960Z,22.80
2022-08-22T21:19:48.825Z,22.70
2022-08-22T21:22:19.471Z,22.70
2022-08-22T21:24:48.791Z,22.70
2022-08-22T21:27:26.682Z,22.70
2022-08-22T21:29:54.991Z,22.70
2022-08-22T21:32:30.692Z,22.60
2022-08-22T21:34:59.403Z,22.60
2022-08-22T21:37:34.766Z,22.50
2022-08-22T21:40:09.120Z,22.50
2022-08-22T21:42:45.297Z,22.50
2022-08-22T21:45:28.650Z,22.50
2022-08-22T21:47:57.261Z,22.50
2022-08-22T21:50:34.897Z,22.50
2022-08-22T21:53:11.828Z,22.30
2022-08-22T21:55:44.300Z,22.20
2022-08-22T21:58:36.558Z,22.20
2022-08-22T22:01:30.321Z,22.10
2022-08-22T22:03:58.894Z,22.10
2022-08-22T22:06:27.201Z,22.00
2022-08-22T22:08:55.222Z,21.90
2022-08-22T22:11:24.847Z,21.90
2022-08-22T22:13:52.598Z,22.00
2022-08-22T22:16:25.674Z,22.00
2022-08-22T22:18:53.709Z,21.90
2022-08-22T22:21:22.014Z,21.70
2022-08-22T22:23:50.594Z,21.80
2022-08-22T22:26:18.534Z,21.70
2022-08-22T22:28:50.128Z,21.70
2022-08-22T22:31:20.592Z,21.60
2022-08-22T22:33:48.413Z,21.70
2022-08-22T22:36:20.007Z,21.60
2022-08-22T22:38:48.523Z,21.50
2022-08-22T22:41:23.319Z,21.50
2022-08-22T22:43:52.561Z,21.40
2022-08-22T22:46:20.373Z,21.50
2022-08-22T22:48:48.131Z,21.40
2022-08-22T22:51:16.474Z,21.30
2022-08-22T22:53:44.829Z,21.40
2022-08-22T22:56:15.910Z,21.40
2022-08-22T22:58:44.311Z,21.30
2022-08-22T23:01:16.514Z,21.30
2022-08-22T23:03:46.703Z,21.10
2022-08-22T23:06:17.858Z,21.10
2022-08-22T23:08:46.032Z,21.20
2022-08-22T23:11:18.551Z,21.10
2022-08-22T23:13:48.094Z,21.10
2022-08-22T23:16:20.499Z,21.00
2022-08-22T23:18:48.850Z,21.00
2022-08-22T23:21:21.994Z,21.00
2022-08-22T23:23:50.605Z,21.00
2022-08-22T23:26:21.152Z,20.70
2022-08-22T23:28:49.319Z,20.60
2022-08-22T23:31:27.350Z,20.60
2022-08-22T23:33:56.122Z,20.40
2022-08-22T23:36:24.899Z,20.40
2022-08-22T23:38:53.325Z,20.30
2022-08-22T23:41:21.891Z,20.20
2022-08-22T23:43:52.996Z,20.10
2022-08-22T23:46:24.148Z,20.20
2022-08-22T23:48:52.699Z,20.10
2022-08-22T23:51:22.924Z,20.20
2022-08-22T23:53:51.365Z,20.10
2022-08-22T23:56:22.153Z,20.20
2022-08-22T23:58:51.277Z,20.20
